createdAt,value
2023-05-05T00:02:14.308Z,4.00
2023-05-05T00:06:04.616Z,4.00
2023-05-05T00:09:39.002Z,4.00
2023-05-05T00:13:28.050Z,4.40
2023-05-05T00:17:09.352Z,4.10
2023-05-05T00:20:58.529Z,3.70
2023-05-05T00:24:41.682Z,3.30
2023-05-05T00:28:02.553Z,3.50
2023-05-05T00:31:41.823Z,3.70
2023-05-05T00:35:05.918Z,3.70
2023-05-05T00:38:35.029Z,3.60
2023-05-05T00:42:03.476Z,3.40
2023-05-05T00:45:41.836Z,3.50
2023-05-05T00:49:24.969Z,4.30
2023-05-05T00:53:14.243Z,4.00
2023-05-05T00:56:53.489Z,4.10
2023-05-05T01:00:30.198Z,4.30
2023-05-05T01:03:44.996Z,4.00
2023-05-05T01:07:27.626Z,4.70
2023-05-05T01:11:20.830Z,3.90
2023-05-05T01:15:12.080Z,4.30
2023-05-05T01:19:13.016Z,4.00
2023-05-05T01:22:54.963Z,3.90
2023-05-05T01:26:29.154Z,4.10
2023-05-05T01:30:28.927Z,4.10
2023-05-05T01:34:17.995Z,4.10
2023-05-05T01:38:13.125Z,3.80
2023-05-05T01:42:04.744Z,4.90
2023-05-05T01:45:35.909Z,3.60
2023-05-05T01:49:17.666Z,3.90
2023-05-05T01:52:58.275Z,4.30
2023-05-05T01:56:48.701Z,3.70
2023-05-05T02:00:38.099Z,4.30
2023-05-05T02:04:27.521Z,4.10
2023-05-05T02:08:09.157Z,3.70
2023-05-05T02:11:58.475Z,2.90
2023-05-05T02:15:48.026Z,3.50
2023-05-05T02:19:08.756Z,3.30
2023-05-05T02:22:57.967Z,3.30
2023-05-05T02:26:47.221Z,4.30
2023-05-05T02:30:36.608Z,4.90
2023-05-05T02:34:06.598Z,4.50
2023-05-05T02:41:25.826Z,5.20
2023-05-05T02:45:15.019Z,4.70
2023-05-05T02:49:04.188Z,3.40
2023-05-05T02:52:53.451Z,4.20
2023-05-05T02:56:36.335Z,4.50
2023-05-05T03:00:31.324Z,4.50
2023-05-05T03:04:26.109Z,2.40
2023-05-05T03:08:15.358Z,6.70
2023-05-05T03:12:04.616Z,5.00
2023-05-05T03:15:52.999Z,4.50
2023-05-05T03:19:42.065Z,5.00
2023-05-05T03:23:24.860Z,4.10
2023-05-05T03:27:06.791Z,3.80
2023-05-05T03:30:55.854Z,2.50
2023-05-05T03:34:44.968Z,3.80
2023-05-05T03:39:21.253Z,5.10
2023-05-05T03:42:43.935Z,5.50
2023-05-05T03:46:32.965Z,5.40
2023-05-05T03:50:22.071Z,2.50
2023-05-05T03:54:11.163Z,7.70
2023-05-05T03:57:55.159Z,6.30
2023-05-05T04:01:36.970Z,5.80
2023-05-05T04:05:26.235Z,5.30
2023-05-05T04:09:07.028Z,5.80
2023-05-05T04:12:56.154Z,5.60
2023-05-05T04:16:38.779Z,6.60
2023-05-05T04:20:27.877Z,5.90
2023-05-05T04:24:06.371Z,6.00
2023-05-05T04:27:48.167Z,9.70
2023-05-05T04:31:36.335Z,10.60
2023-05-05T04:35:27.731Z,10.30
2023-05-05T04:39:16.877Z,10.40
2023-05-05T04:42:57.465Z,11.00
2023-05-05T04:46:32.891Z,10.40
2023-05-05T04:50:22.180Z,9.30
2023-05-05T04:54:12.092Z,7.50
2023-05-05T05:01:05.677Z,8.70
2023-05-05T05:04:54.871Z,9.60
2023-05-05T05:08:44.208Z,11.20
2023-05-05T05:12:32.487Z,10.70
2023-05-05T05:16:04.857Z,10.50
2023-05-05T05:20:14.954Z,11.00
2023-05-05T05:24:06.772Z,10.50
2023-05-05T05:31:56.083Z,9.40
2023-05-05T05:35:47.505Z,9.60
2023-05-05T05:39:31.373Z,10.00
2023-05-05T05:43:00.515Z,9.20
2023-05-05T05:46:30.044Z,9.80
2023-05-05T05:49:42.677Z,9.60
2023-05-05T05:53:23.578Z,9.40
2023-05-05T05:57:17.380Z,8.70
2023-05-05T06:01:06.834Z,9.50
2023-05-05T06:04:38.586Z,10.10
2023-05-05T06:08:10.731Z,9.30
2023-05-05T06:11:42.553Z,10.50
2023-05-05T06:14:44.750Z,11.40
2023-05-05T06:18:24.419Z,10.30
2023-05-05T06:21:59.967Z,10.90
2023-05-05T06:25:29.376Z,9.90
2023-05-05T06:28:39.757Z,8.90
2023-05-05T06:32:09.546Z,8.70
2023-05-05T06:35:34.765Z,7.30
2023-05-05T06:39:03.805Z,7.00
2023-05-05T06:42:36.133Z,9.10
2023-05-05T06:46:09.995Z,8.10
2023-05-05T06:49:59.030Z,8.70
2023-05-05T06:53:49.429Z,8.10
2023-05-05T06:57:26.617Z,8.90
2023-05-05T07:00:47.654Z,8.20
2023-05-05T07:04:36.713Z,8.20
2023-05-05T07:08:21.921Z,9.00
2023-05-05T07:11:56.391Z,7.50
2023-05-05T07:15:38.396Z,8.30
2023-05-05T07:19:10.148Z,9.20
2023-05-05T07:22:25.371Z,9.50
2023-05-05T07:25:45.492Z,8.00
2023-05-05T07:28:57.479Z,8.00
2023-05-05T07:32:45.744Z,8.00
2023-05-05T07:36:33.890Z,6.80
2023-05-05T07:39:21.275Z,6.60
2023-05-05T07:42:50.305Z,6.40
2023-05-05T07:46:39.683Z,5.60
2023-05-05T07:50:07.793Z,5.50
2023-05-05T07:53:57.115Z,5.10
2023-05-05T07:57:46.595Z,4.70
2023-05-05T08:01:36.659Z,3.60
2023-05-05T08:05:26.273Z,2.90
2023-05-05T08:08:44.918Z,2.80
2023-05-05T08:12:34.123Z,2.70
2023-05-05T08:16:04.766Z,2.60
2023-05-05T08:19:36.897Z,2.80
2023-05-05T08:22:51.770Z,2.60
2023-05-05T08:26:26.838Z,4.10
2023-05-05T08:29:42.648Z,2.20
2023-05-05T08:33:31.894Z,2.80
2023-05-05T08:36:49.347Z,1.70
2023-05-05T08:40:09.386Z,1.80
2023-05-05T08:43:10.071Z,2.10
2023-05-05T08:46:14.136Z,1.50
2023-05-05T08:48:57.287Z,1.50
2023-05-05T08:52:26.485Z,2.00
2023-05-05T08:56:00.158Z,2.00
2023-05-05T08:58:49.986Z,1.20
2023-05-05T09:02:18.861Z,1.20
2023-05-05T09:05:48.125Z,1.40
2023-05-05T09:09:08.490Z,1.60
2023-05-05T09:12:20.151Z,1.50
2023-05-05T09:15:29.269Z,2.10
2023-05-05T09:18:05.386Z,1.40
2023-05-05T09:20:35.930Z,1.40
2023-05-05T09:23:19.664Z,1.50
2023-05-05T09:26:23.547Z,1.50
2023-05-05T09:29:32.912Z,1.60
2023-05-05T09:32:42.003Z,1.60
2023-05-05T09:36:29.403Z,1.40
2023-05-05T09:39:50.740Z,1.50
2023-05-05T09:43:04.837Z,1.50
2023-05-05T09:45:58.864Z,1.50
2023-05-05T09:49:45.637Z,1.50
2023-05-05T09:53:01.718Z,1.40
2023-05-05T09:56:37.995Z,1.50
2023-05-05T09:59:44.533Z,1.30
2023-05-05T10:03:11.028Z,1.40
2023-05-05T10:06:31.209Z,1.60
2023-05-05T10:09:33.381Z,1.70
2023-05-05T10:13:07.826Z,1.40
2023-05-05T10:16:29.144Z,1.80
2023-05-05T10:19:32.518Z,1.90
2023-05-05T10:22:23.167Z,1.60
2023-05-05T10:25:19.293Z,1.60
2023-05-05T10:28:40.788Z,1.90
2023-05-05T10:31:26.016Z,1.80
2023-05-05T10:34:10.405Z,1.90
2023-05-05T10:37:02.199Z,1.90
2023-05-05T10:39:50.853Z,1.80
2023-05-05T10:43:18.840Z,1.40
2023-05-05T10:46:37.851Z,1.70
2023-05-05T10:49:15.041Z,1.80
2023-05-05T10:51:50.235Z,1.90
2023-05-05T10:54:55.284Z,2.00
2023-05-05T10:58:07.156Z,1.60
2023-05-05T11:00:38.296Z,2.00
2023-05-05T11:03:42.655Z,1.70
2023-05-05T11:07:06.141Z,1.50
2023-05-05T11:10:23.551Z,1.50
2023-05-05T11:13:19.648Z,1.70
2023-05-05T11:16:00.289Z,2.00
2023-05-05T11:19:19.013Z,1.90
2023-05-05T11:22:23.280Z,1.50
2023-05-05T11:25:53.588Z,1.70
2023-05-05T11:28:37.584Z,2.10
2023-05-05T11:31:11.424Z,1.80
2023-05-05T11:33:58.009Z,1.60
2023-05-05T11:36:41.254Z,1.50
2023-05-05T11:39:37.253Z,1.50
2023-05-05T11:42:34.443Z,1.60
2023-05-05T11:45:19.980Z,1.70
2023-05-05T11:47:51.057Z,1.60
2023-05-05T11:50:23.433Z,1.50
2023-05-05T11:53:19.587Z,1.60
2023-05-05T11:55:47.843Z,1.80
2023-05-05T11:58:19.944Z,1.70
2023-05-05T12:00:51.900Z,8.50
2023-05-05T12:03:41.558Z,2.20
2023-05-05T12:06:46.120Z,1.90
2023-05-05T12:09:24.047Z,1.90
2023-05-05T12:12:12.904Z,3.80
2023-05-05T12:14:54.275Z,2.10
2023-05-05T12:17:56.171Z,2.00
2023-05-05T12:20:34.575Z,1.90
2023-05-05T12:23:23.239Z,1.70
2023-05-05T12:27:02.265Z,1.90
2023-05-05T12:29:32.242Z,2.80
2023-05-05T12:32:41.430Z,1.70
2023-05-05T12:35:13.327Z,2.10
2023-05-05T12:38:14.480Z,2.10
2023-05-05T12:41:23.248Z,2.10
2023-05-05T12:44:20.067Z,1.80
2023-05-05T12:47:45.360Z,1.50
2023-05-05T12:50:38.195Z,1.80
2023-05-05T12:53:36.091Z,1.80
2023-05-05T12:56:19.660Z,1.80
2023-05-05T12:59:13.528Z,1.80
2023-05-05T13:02:17.150Z,2.10
2023-05-05T13:04:54.742Z,1.90
2023-05-05T13:07:45.696Z,1.60
2023-05-05T13:10:57.806Z,1.60
2023-05-05T13:13:58.821Z,1.90
2023-05-05T13:17:20.781Z,1.70
2023-05-05T13:20:10.885Z,1.60
2023-05-05T13:23:20.087Z,1.90
2023-05-05T13:26:23.068Z,1.60
2023-05-05T13:29:14.583Z,1.40
2023-05-05T13:32:00.199Z,1.70
2023-05-05T13:34:42.628Z,1.80
2023-05-05T13:37:51.496Z,3.40
2023-05-05T13:41:08.843Z,1.90
2023-05-05T13:43:39.691Z,2.00
2023-05-05T13:46:34.022Z,1.70
2023-05-05T13:49:12.809Z,1.70
2023-05-05T13:51:47.317Z,1.50
2023-05-05T13:54:46.935Z,1.60
2023-05-05T13:57:26.553Z,1.80
2023-05-05T14:00:31.856Z,1.40
2023-05-05T14:03:29.246Z,1.60
2023-05-05T14:06:03.004Z,1.70
2023-05-05T14:08:36.297Z,1.80
2023-05-05T14:11:11.138Z,1.40
2023-05-05T14:14:03.267Z,1.70
2023-05-05T14:16:34.720Z,1.30
2023-05-05T14:19:15.707Z,1.30
2023-05-05T14:22:13.347Z,1.30
2023-05-05T14:25:21.275Z,1.40
2023-05-05T14:27:54.030Z,1.30
2023-05-05T14:30:46.386Z,1.80
2023-05-05T14:33:20.360Z,1.40
2023-05-05T14:36:09.036Z,1.30
2023-05-05T14:38:40.618Z,2.10
2023-05-05T14:41:49.498Z,1.90
2023-05-05T14:44:58.662Z,2.50
2023-05-05T14:47:38.349Z,2.00
2023-05-05T14:50:09.967Z,1.70
2023-05-05T14:52:58.398Z,2.20
2023-05-05T14:56:07.383Z,1.50
2023-05-05T14:58:35.931Z,1.30
2023-05-05T15:01:33.545Z,1.40
2023-05-05T15:04:21.034Z,1.30
2023-05-05T15:07:09.757Z,1.50
2023-05-05T15:10:09.784Z,1.20
2023-05-05T15:13:21.421Z,1.50
2023-05-05T15:16:05.826Z,1.30
2023-05-05T15:18:55.802Z,1.80
2023-05-05T15:21:53.296Z,5.00
2023-05-05T15:25:19.586Z,2.50
2023-05-05T15:28:12.941Z,4.80
2023-05-05T15:31:16.557Z,2.80
2023-05-05T15:34:34.683Z,1.80
2023-05-05T15:37:13.812Z,1.60
2023-05-05T15:40:28.150Z,3.20
2023-05-05T15:43:28.652Z,1.90
2023-05-05T15:46:24.934Z,1.50
2023-05-05T15:49:16.278Z,3.70
2023-05-05T15:52:00.840Z,1.80
2023-05-05T15:55:19.829Z,2.00
2023-05-05T16:01:11.060Z,1.60
2023-05-05T16:04:06.867Z,1.90
2023-05-05T16:06:55.593Z,2.40
2023-05-05T16:09:35.328Z,2.00
2023-05-05T16:12:37.447Z,3.00
2023-05-05T16:15:33.401Z,2.00
2023-05-05T16:18:22.796Z,2.20
2023-05-05T16:21:34.328Z,1.80
2023-05-05T16:24:47.281Z,1.70
2023-05-05T16:27:29.375Z,1.50
2023-05-05T16:30:26.400Z,1.80
2023-05-05T16:33:24.809Z,1.70
2023-05-05T16:36:25.123Z,2.20
2023-05-05T16:39:13.817Z,2.00
2023-05-05T16:42:22.703Z,1.60
2023-05-05T16:48:00.657Z,2.90
2023-05-05T16:51:11.767Z,1.60
2023-05-05T16:54:29.060Z,1.70
2023-05-05T16:58:08.188Z,1.80
2023-05-05T17:01:24.938Z,1.70
2023-05-05T17:04:45.128Z,1.30
2023-05-05T17:07:55.724Z,1.70
2023-05-05T17:10:56.139Z,1.80
2023-05-05T17:14:27.347Z,2.40
2023-05-05T17:17:45.387Z,1.70
2023-05-05T17:20:46.675Z,1.60
2023-05-05T17:24:02.117Z,1.20
2023-05-05T17:27:39.928Z,1.90
2023-05-05T17:31:25.573Z,1.60
2023-05-05T17:34:58.055Z,1.40
2023-05-05T17:38:29.835Z,2.10
2023-05-05T17:42:10.824Z,2.30
2023-05-05T17:45:38.600Z,2.60
2023-05-05T17:49:17.679Z,2.70
2023-05-05T17:52:45.557Z,2.80
2023-05-05T17:56:34.651Z,2.80
2023-05-05T17:59:57.025Z,2.50
2023-05-05T18:03:44.902Z,2.90
2023-05-05T18:07:32.598Z,2.80
2023-05-05T18:11:25.017Z,2.50
2023-05-05T18:15:14.097Z,2.60
2023-05-05T18:18:46.784Z,2.70
2023-05-05T18:22:28.869Z,2.80
2023-05-05T18:26:18.134Z,3.60
2023-05-05T18:29:50.185Z,3.00
2023-05-05T18:33:46.896Z,2.90
2023-05-05T18:37:42.960Z,3.40
2023-05-05T18:41:32.222Z,3.90
2023-05-05T18:45:21.293Z,3.20
2023-05-05T18:49:12.702Z,3.70
2023-05-05T18:52:27.064Z,4.90
2023-05-05T18:56:17.738Z,5.10
2023-05-05T19:00:05.837Z,4.10
2023-05-05T19:03:55.109Z,3.80
2023-05-05T19:07:38.549Z,4.30
2023-05-05T19:11:27.672Z,4.40
2023-05-05T19:15:26.654Z,4.20
2023-05-05T19:19:00.202Z,4.70
2023-05-05T19:22:14.286Z,5.00
2023-05-05T19:26:06.396Z,4.80
2023-05-05T19:29:31.588Z,4.60
2023-05-05T19:33:13.605Z,5.00
2023-05-05T19:36:55.661Z,5.90
2023-05-05T19:40:44.693Z,5.80
2023-05-05T19:44:18.693Z,5.90
2023-05-05T19:47:52.126Z,5.50
2023-05-05T19:51:37.822Z,6.20
2023-05-05T19:55:28.567Z,5.60
2023-05-05T19:59:04.732Z,5.50
2023-05-05T20:02:51.771Z,5.30
2023-05-05T20:05:29.430Z,6.10
2023-05-05T20:14:00.537Z,4.90
2023-05-05T20:17:26.332Z,5.20
2023-05-05T20:21:22.012Z,5.30
2023-05-05T20:25:13.207Z,5.50
2023-05-05T20:29:16.232Z,5.10
2023-05-05T20:32:56.102Z,5.00
2023-05-05T20:41:16.250Z,6.20
2023-05-05T20:45:08.188Z,6.40
2023-05-05T20:48:43.031Z,6.00
2023-05-05T20:51:54.957Z,6.00
2023-05-05T20:55:34.875Z,6.80
2023-05-05T20:59:09.525Z,6.80
2023-05-05T21:03:10.179Z,6.80
2023-05-05T21:06:59.429Z,5.90
2023-05-05T21:10:50.003Z,6.30
2023-05-05T21:14:39.087Z,6.30
2023-05-05T21:18:28.224Z,6.60
2023-05-05T21:22:03.202Z,6.40
2023-05-05T21:25:52.313Z,6.70
2023-05-05T21:29:41.156Z,6.50
2023-05-05T21:33:30.278Z,6.70
2023-05-05T21:37:02.268Z,7.00
2023-05-05T21:40:50.490Z,6.60
2023-05-05T21:47:51.207Z,6.90
2023-05-05T21:51:40.293Z,6.70
2023-05-05T21:55:29.648Z,6.90
2023-05-05T21:59:18.887Z,6.40
2023-05-05T22:02:58.332Z,7.30
2023-05-05T22:06:47.460Z,7.00
2023-05-05T22:10:36.764Z,7.00
2023-05-05T22:14:24.691Z,7.10
2023-05-05T22:18:13.729Z,7.40
2023-05-05T22:22:02.982Z,7.40
2023-05-05T22:25:52.078Z,7.40
2023-05-05T22:29:41.222Z,6.90
2023-05-05T22:33:30.360Z,7.30
2023-05-05T22:37:20.579Z,7.10
2023-05-05T22:41:09.968Z,6.80
2023-05-05T22:44:49.074Z,6.70
2023-05-05T22:48:31.778Z,6.70
2023-05-05T22:52:20.916Z,5.80
2023-05-05T22:56:10.117Z,6.60
2023-05-05T22:59:59.303Z,6.30
2023-05-05T23:03:48.691Z,6.10
2023-05-05T23:07:36.823Z,6.60
2023-05-05T23:11:17.136Z,6.30
2023-05-05T23:18:35.182Z,7.40
2023-05-05T23:22:24.229Z,6.40
2023-05-05T23:26:13.418Z,6.70
2023-05-05T23:30:02.594Z,6.10
2023-05-05T23:33:52.840Z,6.00
2023-05-05T23:37:43.079Z,5.90
2023-05-05T23:41:32.115Z,6.30
2023-05-05T23:45:11.471Z,6.00
2023-05-05T23:49:00.116Z,6.30
2023-05-05T23:52:49.090Z,6.10
2023-05-05T23:56:38.166Z,6.20
